Forside
METAR-TAF:

METAR-TAF

Lufthavne :

Tri-Township Airport

Savanna, Illinois, USA

Breddekreds: 42-02-45N, længdekreds: 090-06-28W, højde: 188 m

Aktuelle vejr

Denne rapport blev lavet for 32 minutter siden, kl. 00:35 UTC
Vind 7 kt fra vestsydvest
Temperatur -8°C
Fugtighed 73%
Tryk 1027 hPa
Sigt: 16.1 km
Spredte skyer i en højde af 3100 ft

METAR: KSFY 110035Z AUTO 24007KT 10SM SCT031 M08/M12 A3032 RMK AO2

Tid: 19:07 (01:07 UTC)


TAF: fraværende

Vejrobservationer og prognoser fra mere end 4000 lufthavne (METAR og TAF).

De gule og røde prikker repræsenterer de meteorologiske stationer.

Flyt musen over at se navnet på stationen.

Så klik over at se vejr observationer og prognoser.

At skifte det kort: Klik på de grønne knapper med et sort kors for at zoome ind; på den grønne knap med en bindestreg for at zoome ud; eller på de grønne pile for tilstødende kort.


METAR-TAF: